Time;durP1;ratioP1;P1;durP2;ratioP2;P2;SDS_P1;SDS_P2;PMS_P1;PMS_P2;Temp;Humidity;BMP_temperature;BMP_pressure;BME280_temperature;BME280_humidity;BME280_pressure;Samples;Min_cycle;Max_cycle;Signal;HPM_P1;HPM_P2
2023/03/11 00:02:06;;;;;;;9.03;2.40;;;;;;;0.09;100.00;100571.03;4994615;28;20812;-85
2023/03/11 00:04:31;;;;;;;9.77;2.57;;;;;;;0.05;100.00;100564.34;4982717;28;20038;-85
2023/03/11 00:06:57;;;;;;;12.00;3.03;;;;;;;0.03;100.00;100566.34;4982831;28;20089;-84
2023/03/11 00:09:22;;;;;;;10.13;3.13;;;;;;;-0.05;100.00;100568.91;4999415;28;20048;-84
2023/03/11 00:11:48;;;;;;;10.03;2.77;;;;;;;-0.07;100.00;100579.72;4995425;28;21915;-85
2023/03/11 00:14:13;;;;;;;11.37;2.70;;;;;;;-0.10;100.00;100582.66;4974268;28;20061;-85
2023/03/11 00:16:39;;;;;;;11.23;2.80;;;;;;;-0.18;100.00;100578.09;4992980;28;20062;-85
2023/03/11 00:19:04;;;;;;;12.37;2.90;;;;;;;-0.18;100.00;100588.75;4953446;28;20061;-85
2023/03/11 00:21:30;;;;;;;10.00;2.73;;;;;;;-0.22;100.00;100582.03;4951501;28;20111;-85
2023/03/11 00:23:59;;;;;;;10.90;2.57;;;;;;;-0.25;100.00;100584.97;4947542;28;20560;-85
2023/03/11 00:26:25;;;;;;;10.90;2.40;;;;;;;-0.26;100.00;100585.97;4959490;28;20087;-85
2023/03/11 00:28:51;;;;;;;8.53;2.20;;;;;;;-0.34;100.00;100588.50;4948031;28;20294;-85
2023/03/11 00:31:16;;;;;;;10.37;2.60;;;;;;;-0.35;100.00;100589.53;4956077;28;20035;-85
2023/03/11 00:33:42;;;;;;;8.23;2.30;;;;;;;-0.38;100.00;100589.78;4955307;28;20078;-85
2023/03/11 00:36:21;;;;;;;10.73;2.70;;;;;;;-0.42;100.00;100599.91;4956246;28;20479;-84
2023/03/11 00:38:46;;;;;;;7.90;2.17;;;;;;;-0.47;100.00;100596.03;4953889;28;21894;-85
2023/03/11 00:41:12;;;;;;;7.77;2.77;;;;;;;-0.44;100.00;100611.69;4955936;28;20401;-84
2023/03/11 00:43:37;;;;;;;9.87;2.53;;;;;;;-0.52;100.00;100604.41;4956547;28;20581;-84
2023/03/11 00:46:04;;;;;;;7.97;2.23;;;;;;;-0.56;100.00;100611.88;4943719;28;20035;-84
2023/03/11 00:48:30;;;;;;;7.40;2.07;;;;;;;-0.54;100.00;100622.38;4960920;28;20051;-84
2023/03/11 00:50:56;;;;;;;10.10;2.57;;;;;;;-0.53;100.00;100619.56;4942373;28;20283;-85
2023/03/11 00:53:21;;;;;;;7.30;2.40;;;;;;;-0.59;100.00;100620.13;4951775;28;20038;-85
2023/03/11 00:55:46;;;;;;;9.07;2.30;;;;;;;-0.56;100.00;100624.31;4946506;28;20118;-84
2023/03/11 00:58:12;;;;;;;9.97;2.60;;;;;;;-0.58;100.00;100619.16;4944711;28;20933;-84
2023/03/11 01:00:37;;;;;;;9.43;2.40;;;;;;;-0.60;100.00;100618.47;4948894;28;20039;-84
2023/03/11 01:03:03;;;;;;;10.37;2.50;;;;;;;-0.58;100.00;100616.50;4945471;28;20028;-84
2023/03/11 01:05:31;;;;;;;7.37;2.30;;;;;;;-0.62;100.00;100630.25;4950485;28;20279;-84
2023/03/11 01:07:58;;;;;;;10.20;2.57;;;;;;;-0.64;100.00;100633.06;4951479;28;20316;-85
2023/03/11 01:10:23;;;;;;;6.77;2.13;;;;;;;-0.64;100.00;100634.84;4960167;28;20287;-85
2023/03/11 01:12:49;;;;;;;8.87;2.27;;;;;;;-0.70;100.00;100634.44;4949914;28;20301;-84
2023/03/11 01:15:21;;;;;;;8.60;2.70;;;;;;;-0.75;100.00;100647.34;4950650;28;20970;-85
2023/03/11 01:17:47;;;;;;;9.70;2.40;;;;;;;-0.74;100.00;100650.84;4953962;28;20039;-85
2023/03/11 01:20:13;;;;;;;8.43;2.70;;;;;;;-0.79;100.00;100655.75;4988276;28;20296;-85
2023/03/11 01:22:38;;;;;;;7.27;2.40;;;;;;;-0.83;100.00;100654.34;4974997;28;20038;-85
2023/03/11 01:25:04;;;;;;;9.33;2.70;;;;;;;-0.79;100.00;100661.94;4978550;28;20591;-85
2023/03/11 01:27:30;;;;;;;10.43;2.33;;;;;;;-0.85;100.00;100658.00;4981327;28;20043;-85
2023/03/11 01:29:55;;;;;;;12.13;2.70;;;;;;;-0.85;100.00;100660.66;4970594;28;20089;-84
2023/03/11 01:32:20;;;;;;;10.97;3.00;;;;;;;-0.88;100.00;100658.28;4978065;28;20109;-85
2023/03/11 01:34:46;;;;;;;10.87;2.47;;;;;;;-0.82;100.00;100659.53;4997837;28;21708;-85
2023/03/11 01:37:11;;;;;;;9.53;2.63;;;;;;;-0.90;100.00;100654.94;4957789;28;20125;-85
2023/03/11 01:39:37;;;;;;;6.83;2.57;;;;;;;-0.91;100.00;100658.56;4995141;28;20099;-85
2023/03/11 01:42:02;;;;;;;7.93;2.50;;;;;;;-0.88;100.00;100658.28;4938868;28;20037;-85
2023/03/11 01:44:28;;;;;;;5.67;2.53;;;;;;;-0.86;100.00;100660.78;4998754;28;20042;-84
2023/03/11 01:46:53;;;;;;;11.57;2.93;;;;;;;-0.83;100.00;100659.69;4939793;28;20125;-84
2023/03/11 01:49:22;;;;;;;7.57;2.43;;;;;;;-0.86;100.00;100660.78;4993072;28;20035;-85
2023/03/11 01:51:51;;;;;;;9.20;2.90;;;;;;;-0.87;100.00;100662.63;4967897;28;20049;-85
2023/03/11 01:54:24;;;;;;;9.40;2.60;;;;;;;-0.87;100.00;100667.09;4979125;28;20716;-85
2023/03/11 01:56:51;;;;;;;6.67;2.10;;;;;;;-0.93;100.00;100665.00;4968397;28;20290;-85
2023/03/11 01:59:28;;;;;;;6.70;2.10;;;;;;;-0.96;100.00;100658.16;4984320;28;20313;-85
2023/03/11 02:02:11;;;;;;;6.60;2.00;;;;;;;-0.95;100.00;100666.97;4978360;28;20428;-84
2023/03/11 02:04:39;;;;;;;7.93;2.10;;;;;;;-0.94;100.00;100671.31;4988281;28;20290;-85
2023/03/11 02:07:07;;;;;;;7.90;2.40;;;;;;;-0.96;100.00;100666.13;4967979;28;20423;-85
2023/03/11 02:09:32;;;;;;;7.80;2.20;;;;;;;-1.00;100.00;100654.09;4987081;28;20340;-84
2023/03/11 02:11:58;;;;;;;8.77;2.53;;;;;;;-0.99;100.00;100671.75;4964692;28;20719;-84
2023/03/11 02:14:24;;;;;;;9.17;2.40;;;;;;;-1.05;100.00;100659.00;4980221;28;20034;-84
2023/03/11 02:16:50;;;;;;;10.53;2.60;;;;;;;-1.05;100.00;100672.28;4986817;28;20525;-84
2023/03/11 02:19:28;;;;;;;8.73;2.30;;;;;;;-1.11;100.00;100671.03;4976424;28;20293;-85
2023/03/11 02:21:54;;;;;;;9.97;2.40;;;;;;;-1.17;100.00;100673.41;4983919;28;20046;-84
2023/03/11 02:24:35;;;;;;;9.37;2.63;;;;;;;-1.27;100.00;100676.91;4975831;28;20352;-84
2023/03/11 02:27:04;;;;;;;10.07;2.83;;;;;;;-1.38;100.00;100671.72;4997510;28;20320;-84
2023/03/11 02:29:32;;;;;;;11.67;2.80;;;;;;;-1.45;100.00;100686.53;4995891;28;20356;-84
2023/03/11 02:32:00;;;;;;;8.63;2.37;;;;;;;-1.48;100.00;100681.47;4983005;28;21313;-84
2023/03/11 02:34:28;;;;;;;11.37;2.70;;;;;;;-1.56;100.00;100680.38;4978957;28;20281;-84
2023/03/11 02:36:54;;;;;;;7.10;2.20;;;;;;;-1.57;100.00;100689.31;4985580;28;20303;-84
2023/03/11 02:39:40;;;;;;;8.30;2.20;;;;;;;-1.57;100.00;100683.16;4999755;28;20296;-84
2023/03/11 02:42:15;;;;;;;6.97;2.30;;;;;;;-1.61;100.00;100677.25;4987129;28;20035;-84
2023/03/11 02:44:44;;;;;;;10.47;2.63;;;;;;;-1.65;100.00;100675.03;4992404;28;20299;-84
2023/03/11 02:47:09;;;;;;;8.60;2.67;;;;;;;-1.73;100.00;100667.72;4993317;28;20297;-84
2023/03/11 02:49:35;;;;;;;7.00;2.70;;;;;;;-1.72;100.00;100674.72;4980197;28;20646;-84
2023/03/11 02:52:01;;;;;;;10.37;2.73;;;;;;;-1.72;100.00;100674.72;4984576;28;20042;-84
2023/03/11 02:54:26;;;;;;;11.97;2.83;;;;;;;-1.74;100.00;100674.00;4999314;28;20307;-84
2023/03/11 02:56:52;;;;;;;10.30;2.77;;;;;;;-1.78;100.00;100669.94;4941782;28;20047;-84
2023/03/11 02:59:17;;;;;;;10.33;2.70;;;;;;;-1.82;100.00;100674.72;4959065;28;20878;-84
2023/03/11 03:01:42;;;;;;;10.50;3.07;;;;;;;-1.82;100.00;100671.19;4981335;28;20046;-84
2023/03/11 03:04:08;;;;;;;11.13;2.70;;;;;;;-1.84;100.00;100668.69;4992171;28;20113;-84
2023/03/11 03:06:33;;;;;;;10.97;2.60;;;;;;;-1.84;100.00;100665.19;4979951;28;20049;-84
2023/03/11 03:08:59;;;;;;;7.10;2.40;;;;;;;-1.91;100.00;100662.25;4993653;28;20038;-84
2023/03/11 03:11:24;;;;;;;8.57;2.60;;;;;;;-1.87;100.00;100663.66;4994828;28;20082;-84
2023/03/11 03:13:49;;;;;;;8.23;2.40;;;;;;;-1.91;100.00;100667.56;4989630;28;20073;-84
2023/03/11 03:16:15;;;;;;;9.37;2.87;;;;;;;-1.89;100.00;100679.72;4980260;28;20045;-84
2023/03/11 03:18:40;;;;;;;7.20;2.50;;;;;;;-1.93;100.00;100677.44;4975619;28;20129;-83
2023/03/11 03:21:05;;;;;;;12.33;2.60;;;;;;;-1.95;100.00;100685.56;4958116;28;20057;-83
2023/03/11 03:23:34;;;;;;;11.90;3.10;;;;;;;-1.93;100.00;100693.38;4977154;28;20092;-83
2023/03/11 03:26:00;;;;;;;7.37;2.40;;;;;;;-1.96;100.00;100694.53;4978004;28;20168;-84
2023/03/11 03:28:26;;;;;;;10.93;3.10;;;;;;;-1.95;100.00;100705.97;4978683;28;20332;-84
2023/03/11 03:30:52;;;;;;;11.67;3.03;;;;;;;-1.96;100.00;100713.09;4995445;28;20384;-84
2023/03/11 03:33:17;;;;;;;10.30;2.83;;;;;;;-1.98;100.00;100709.72;4989910;28;20089;-84
2023/03/11 03:35:44;;;;;;;8.83;2.60;;;;;;;-1.95;100.00;100717.44;4998311;28;20064;-84
2023/03/11 03:38:09;;;;;;;12.97;3.27;;;;;;;-1.95;100.00;100721.91;4997131;28;20049;-84
2023/03/11 03:40:35;;;;;;;10.10;2.90;;;;;;;-1.94;100.00;100724.41;4992845;28;20289;-84
2023/03/11 03:43:00;;;;;;;9.77;2.87;;;;;;;-1.89;100.00;100727.53;4955168;28;20050;-83
2023/03/11 03:45:26;;;;;;;12.10;3.00;;;;;;;-1.85;100.00;100736.03;4996140;28;20848;-83
2023/03/11 03:47:51;;;;;;;8.80;2.80;;;;;;;-1.77;100.00;100735.38;4996179;28;20397;-83
2023/03/11 03:50:16;;;;;;;12.20;2.70;;;;;;;-1.80;100.00;100733.00;4991650;28;20050;-83
2023/03/11 03:52:42;;;;;;;11.33;3.30;;;;;;;-1.80;100.00;100731.19;4978623;28;21018;-84
2023/03/11 03:55:08;;;;;;;9.67;2.80;;;;;;;-1.77;100.00;100735.38;4986710;28;20053;-83
2023/03/11 03:57:33;;;;;;;11.60;3.10;;;;;;;-1.77;100.00;100732.72;4980072;28;20129;-83
2023/03/11 03:59:58;;;;;;;9.23;2.93;;;;;;;-1.82;100.00;100734.94;4956829;28;20043;-85
2023/03/11 04:02:24;;;;;;;8.57;2.70;;;;;;;-1.74;100.00;100737.75;4962518;28;20042;-84
2023/03/11 04:04:50;;;;;;;8.77;2.60;;;;;;;-1.70;100.00;100740.03;4962061;28;20056;-83
2023/03/11 04:07:15;;;;;;;12.63;3.20;;;;;;;-1.65;100.00;100747.59;4952788;28;20038;-83
2023/03/11 04:09:42;;;;;;;9.73;2.73;;;;;;;-1.73;100.00;100744.78;4975135;28;20384;-83
2023/03/11 04:12:12;;;;;;;7.67;2.73;;;;;;;-1.77;100.00;100748.66;4995703;28;20215;-83
2023/03/11 04:14:37;;;;;;;4.23;2.03;;;;;;;-1.71;100.00;100748.16;4978070;28;20296;-83
2023/03/11 04:17:03;;;;;;;8.53;2.97;;;;;;;-1.83;100.00;100746.56;4991601;28;20375;-83
2023/03/11 04:19:28;;;;;;;9.50;2.70;;;;;;;-1.91;100.00;100758.66;4996666;28;20487;-83
2023/03/11 04:21:53;;;;;;;9.03;2.87;;;;;;;-1.92;100.00;100754.34;4978446;28;20029;-83
2023/03/11 04:24:19;;;;;;;7.43;2.70;;;;;;;-1.96;100.00;100752.09;4993262;28;20046;-83
2023/03/11 04:26:44;;;;;;;11.50;2.80;;;;;;;-1.95;100.00;100767.88;4955716;28;20538;-83
2023/03/11 04:29:10;;;;;;;11.87;3.00;;;;;;;-1.87;100.00;100767.22;4995129;28;20125;-83
2023/03/11 04:31:35;;;;;;;9.30;3.20;;;;;;;-2.02;100.00;100764.06;4996793;28;20422;-84
2023/03/11 04:34:01;;;;;;;10.27;2.73;;;;;;;-2.01;100.00;100764.91;4990008;28;20390;-83
2023/03/11 04:36:26;;;;;;;9.23;3.10;;;;;;;-2.04;100.00;100766.88;4953939;28;20483;-83
2023/03/11 04:38:52;;;;;;;8.43;3.20;;;;;;;-2.08;100.00;100764.59;4991201;28;20463;-83
2023/03/11 04:41:17;;;;;;;8.57;2.77;;;;;;;-2.14;100.00;100762.47;4966475;28;20042;-83
2023/03/11 04:43:43;;;;;;;9.67;3.07;;;;;;;-2.15;100.00;100758.13;4995577;28;20039;-83
2023/03/11 04:46:08;;;;;;;8.43;3.07;;;;;;;-2.14;100.00;100759.81;4960691;28;20034;-83
2023/03/11 04:48:34;;;;;;;10.13;2.97;;;;;;;-2.16;100.00;100765.25;4957115;28;20045;-83
2023/03/11 04:50:59;;;;;;;9.50;2.97;;;;;;;-2.19;100.00;100760.19;5005936;28;20116;-84
2023/03/11 04:53:25;;;;;;;10.17;3.00;;;;;;;-2.12;100.00;100764.03;4993300;28;20042;-84
2023/03/11 04:55:51;;;;;;;9.87;3.17;;;;;;;-2.22;100.00;100766.63;4952968;28;20049;-84
2023/03/11 04:58:16;;;;;;;8.73;2.77;;;;;;;-2.25;100.00;100758.09;4990530;28;20031;-83
2023/03/11 05:00:41;;;;;;;7.80;2.60;;;;;;;-2.16;100.00;100759.09;4987700;28;20351;-83
2023/03/11 05:03:07;;;;;;;10.97;3.40;;;;;;;-2.23;100.00;100762.28;4997150;28;20070;-83
2023/03/11 05:05:32;;;;;;;9.17;2.90;;;;;;;-2.29;100.00;100757.50;4978413;28;20498;-83
2023/03/11 05:07:58;;;;;;;7.40;2.80;;;;;;;-2.32;100.00;100757.75;4997414;28;20077;-83
2023/03/11 05:10:23;;;;;;;9.50;3.00;;;;;;;-2.37;100.00;100757.31;4997018;28;20042;-83
2023/03/11 05:12:49;;;;;;;9.70;3.03;;;;;;;-2.43;100.00;100758.66;4957089;28;21014;-83
2023/03/11 05:15:15;;;;;;;10.47;3.23;;;;;;;-2.45;100.00;100767.72;4966749;28;20050;-83
2023/03/11 05:17:40;;;;;;;9.67;3.03;;;;;;;-2.49;100.00;100771.59;4972759;28;20288;-83
2023/03/11 05:20:06;;;;;;;9.30;3.00;;;;;;;-2.50;100.00;100769.91;4984576;28;20054;-83
2023/03/11 05:22:32;;;;;;;10.67;3.03;;;;;;;-2.56;100.00;100774.78;4972911;28;20026;-83
2023/03/11 05:24:58;;;;;;;9.87;3.10;;;;;;;-2.52;100.00;100782.47;4978901;28;20299;-83
2023/03/11 05:27:23;;;;;;;10.70;3.43;;;;;;;-2.52;100.00;100779.81;4969931;28;20290;-84
2023/03/11 05:29:49;;;;;;;10.90;3.07;;;;;;;-2.52;100.00;100793.09;4981869;28;20105;-83
2023/03/11 05:32:14;;;;;;;6.80;2.87;;;;;;;-2.51;100.00;100779.69;4976968;28;20042;-83
2023/03/11 05:34:40;;;;;;;9.13;3.20;;;;;;;-2.47;100.00;100780.28;4977336;28;20030;-83
2023/03/11 05:37:05;;;;;;;10.60;3.20;;;;;;;-2.49;100.00;100788.34;4977922;28;20039;-83
2023/03/11 05:39:31;;;;;;;13.27;3.50;;;;;;;-2.46;100.00;100787.25;4958962;28;20049;-83
2023/03/11 05:41:56;;;;;;;6.97;3.30;;;;;;;-2.48;100.00;100789.22;4991326;28;20039;-83
2023/03/11 05:44:22;;;;;;;12.37;3.50;;;;;;;-2.50;100.00;100802.63;4975491;28;20506;-83
2023/03/11 05:46:47;;;;;;;10.23;3.17;;;;;;;-2.53;100.00;100797.53;4974556;28;20441;-83
2023/03/11 05:49:12;;;;;;;11.27;3.23;;;;;;;-2.60;100.00;100801.69;4967046;28;20049;-83
2023/03/11 05:51:38;;;;;;;10.67;3.40;;;;;;;-2.51;100.00;100805.41;4991225;28;20030;-84
2023/03/11 05:54:10;;;;;;;10.43;3.23;;;;;;;-2.53;100.00;100817.94;4997357;28;20058;-84
2023/03/11 05:56:35;;;;;;;10.87;3.50;;;;;;;-2.61;100.00;100815.91;4941382;28;20165;-83
2023/03/11 05:59:01;;;;;;;11.47;3.80;;;;;;;-2.61;100.00;100811.47;4992055;28;20372;-83
2023/03/11 06:01:26;;;;;;;10.03;3.33;;;;;;;-2.63;100.00;100813.38;4986864;28;20038;-83
2023/03/11 06:03:52;;;;;;;11.37;3.50;;;;;;;-2.59;100.00;100821.94;4953409;28;20418;-83
2023/03/11 06:06:17;;;;;;;8.77;3.13;;;;;;;-2.67;100.00;100827.03;4985179;28;20076;-84
2023/03/11 06:08:48;;;;;;;9.87;3.10;;;;;;;-2.67;100.00;100827.03;4982487;28;20038;-83
2023/03/11 06:11:14;;;;;;;10.03;2.13;;;;;;;-2.64;100.00;100824.97;4974421;28;20441;-84
2023/03/11 06:13:39;;;;;;;11.60;3.53;;;;;;;-2.66;100.00;100828.72;4978659;28;20285;-83
2023/03/11 06:16:07;;;;;;;10.77;3.53;;;;;;;-2.65;100.00;100830.38;4994722;28;20401;-83
2023/03/11 06:18:32;;;;;;;10.53;3.23;;;;;;;-2.65;100.00;100836.56;4995774;28;20300;-83
2023/03/11 06:20:59;;;;;;;9.37;3.40;;;;;;;-2.64;100.00;100838.25;4979711;28;20052;-83
2023/03/11 06:23:25;;;;;;;15.20;3.90;;;;;;;-2.68;100.00;100830.66;4968174;28;20509;-84
2023/03/11 06:26:04;;;;;;;9.83;3.53;;;;;;;-2.72;100.00;100840.66;4966901;28;20395;-84
2023/03/11 06:28:30;;;;;;;12.30;3.63;;;;;;;-2.78;100.00;100846.47;4967250;28;20289;-83
2023/03/11 06:31:13;;;;;;;9.73;3.33;;;;;;;-2.77;100.00;100850.81;4997266;28;20305;-83
2023/03/11 06:33:39;;;;;;;12.30;3.63;;;;;;;-2.80;100.00;100845.75;4980799;28;20320;-84
2023/03/11 06:36:05;;;;;;;8.90;3.50;;;;;;;-2.83;100.00;100848.66;4995112;28;20293;-84
2023/03/11 06:38:31;;;;;;;9.43;3.73;;;;;;;-2.79;100.00;100856.25;4969866;28;20057;-83
2023/03/11 06:41:02;;;;;;;9.87;3.30;;;;;;;-2.76;100.00;100861.31;4973523;28;20039;-84
2023/03/11 06:43:28;;;;;;;8.53;3.43;;;;;;;-2.75;100.00;100859.47;4991556;28;20784;-83
2023/03/11 06:45:54;;;;;;;4.97;2.33;;;;;;;-2.66;100.00;100865.88;4965263;28;20804;-83
2023/03/11 06:48:19;;;;;;;11.20;3.57;;;;;;;-2.68;100.00;100868.63;4995510;28;20297;-83
2023/03/11 06:50:53;;;;;;;4.73;1.83;;;;;;;-2.59;100.00;100877.66;4976907;28;20144;-83
2023/03/11 06:53:19;;;;;;;11.40;3.50;;;;;;;-2.57;100.00;100883.66;4990877;28;20041;-84
2023/03/11 06:55:44;;;;;;;11.73;4.00;;;;;;;-2.47;100.00;100879.28;4968788;28;20038;-83
2023/03/11 06:58:09;;;;;;;9.73;3.63;;;;;;;-2.38;100.00;100894.47;4979109;28;20030;-83
2023/03/11 07:00:35;;;;;;;10.00;4.30;;;;;;;-2.30;100.00;100896.50;4994809;28;20038;-84
2023/03/11 07:03:00;;;;;;;11.63;3.97;;;;;;;-2.22;100.00;100893.19;4968900;28;20705;-83
2023/03/11 07:05:26;;;;;;;11.70;4.00;;;;;;;-2.12;100.00;100899.44;4992684;28;20030;-83
2023/03/11 07:07:54;;;;;;;13.33;3.93;;;;;;;-1.99;100.00;100907.19;4996600;28;20046;-83
2023/03/11 07:10:20;;;;;;;10.40;3.83;;;;;;;-1.87;100.00;100916.78;4977274;28;20034;-83
2023/03/11 07:12:46;;;;;;;10.13;3.77;;;;;;;-1.78;100.00;100919.63;4976963;28;20297;-84
2023/03/11 07:15:12;;;;;;;11.30;3.73;;;;;;;-1.70;100.00;100919.81;4976341;28;20276;-83
2023/03/11 07:17:37;;;;;;;13.27;3.70;;;;;;;-1.60;100.00;100915.44;4967545;28;20053;-85
2023/03/11 07:20:03;;;;;;;10.27;3.70;;;;;;;-1.46;100.00;100918.72;4983413;28;20298;-83
2023/03/11 07:22:29;;;;;;;9.23;3.70;;;;;;;-1.34;100.00;100915.00;4974076;28;20046;-83
2023/03/11 07:24:54;;;;;;;9.73;3.70;;;;;;;-1.25;100.00;100919.53;4978510;28;20308;-83
2023/03/11 07:27:21;;;;;;;8.67;3.53;;;;;;;-1.13;100.00;100922.97;4981525;28;20060;-83
2023/03/11 07:29:46;;;;;;;8.03;3.40;;;;;;;-1.04;100.00;100924.78;4946028;28;20034;-86
2023/03/11 07:32:12;;;;;;;13.97;3.70;;;;;;;-0.90;100.00;100928.91;4996047;28;20285;-84
2023/03/11 07:34:37;;;;;;;10.03;3.27;;;;;;;-0.78;100.00;100923.47;4976912;28;20034;-83
2023/03/11 07:37:03;;;;;;;11.17;3.47;;;;;;;-0.63;100.00;100931.94;4934070;28;20130;-83
2023/03/11 07:39:28;;;;;;;12.50;3.63;;;;;;;-0.46;100.00;100941.06;4979437;28;20040;-84
2023/03/11 07:41:54;;;;;;;14.13;4.93;;;;;;;-0.39;100.00;100942.19;4976074;28;20077;-84
2023/03/11 07:44:19;;;;;;;9.80;3.73;;;;;;;-0.26;100.00;100932.13;4975831;28;20026;-84
2023/03/11 07:46:44;;;;;;;11.47;3.67;;;;;;;-0.05;100.00;100941.81;4978102;28;20030;-83
2023/03/11 07:49:10;;;;;;;9.73;3.37;;;;;;;0.08;100.00;100947.69;4956553;28;20030;-83
2023/03/11 07:51:37;;;;;;;8.30;3.20;;;;;;;0.21;100.00;100941.25;4994714;28;20108;-83
2023/03/11 07:54:03;;;;;;;7.03;2.87;;;;;;;0.31;100.00;100953.56;4991158;28;20037;-84
2023/03/11 07:56:33;;;;;;;8.70;3.10;;;;;;;0.38;100.00;100956.50;4971670;28;20291;-83
2023/03/11 07:59:00;;;;;;;8.30;3.20;;;;;;;0.54;100.00;100968.41;4991317;28;20346;-84
2023/03/11 08:01:29;;;;;;;9.57;3.43;;;;;;;0.65;100.00;100974.44;4996784;28;20293;-84
2023/03/11 08:03:57;;;;;;;8.03;3.00;;;;;;;0.73;100.00;100979.03;4991101;28;20346;-84
2023/03/11 08:06:26;;;;;;;9.37;3.37;;;;;;;1.06;100.00;100976.84;4962491;28;20328;-83
2023/03/11 08:08:51;;;;;;;8.97;3.27;;;;;;;1.25;100.00;100973.25;4975115;28;20291;-83
2023/03/11 08:11:18;;;;;;;7.20;2.93;;;;;;;1.51;100.00;100976.06;4952001;28;20478;-84
2023/03/11 08:13:44;;;;;;;7.20;3.17;;;;;;;1.85;99.60;100974.59;4959820;28;20405;-84
2023/03/11 08:16:13;;;;;;;9.53;3.20;;;;;;;1.99;97.92;100981.22;4974513;28;20391;-84
2023/03/11 08:18:39;;;;;;;9.27;3.03;;;;;;;2.24;95.91;100986.78;4992481;28;20030;-84
2023/03/11 08:21:11;;;;;;;9.00;3.03;;;;;;;2.32;94.78;100981.50;4954417;28;20062;-86
2023/03/11 08:23:36;;;;;;;9.67;3.10;;;;;;;2.55;93.77;100983.72;4994163;28;20072;-85
2023/03/11 08:26:07;;;;;;;7.00;3.00;;;;;;;2.77;91.08;100977.81;4967775;28;20058;-85
2023/03/11 08:28:32;;;;;;;5.70;2.80;;;;;;;3.31;92.51;100982.16;4991985;28;20525;-85
2023/03/11 08:30:58;;;;;;;7.10;2.90;;;;;;;3.46;89.88;100982.38;4955831;28;20050;-85
2023/03/11 08:33:24;;;;;;;5.67;2.47;;;;;;;3.63;89.11;100980.56;4951614;28;20042;-85
2023/03/11 08:35:49;;;;;;;6.83;2.90;;;;;;;3.65;85.87;100983.94;4933236;28;20418;-85
2023/03/11 08:38:15;;;;;;;7.93;3.10;;;;;;;3.82;87.22;100987.50;4991966;28;20042;-85
2023/03/11 08:40:40;;;;;;;6.93;2.63;;;;;;;4.15;84.22;100993.75;4985964;28;20038;-85
2023/03/11 08:43:06;;;;;;;7.97;2.90;;;;;;;4.34;84.84;100994.47;4950220;28;20042;-85
2023/03/11 08:45:32;;;;;;;7.77;3.00;;;;;;;4.51;86.44;101000.66;4990445;28;20049;-86
2023/03/11 08:47:57;;;;;;;7.93;2.87;;;;;;;4.28;80.43;101006.66;4966491;28;20402;-86
2023/03/11 08:50:23;;;;;;;7.30;2.80;;;;;;;4.72;83.80;100997.47;4976404;28;20491;-85
2023/03/11 08:52:48;;;;;;;7.30;2.70;;;;;;;4.88;82.27;101002.81;4960727;28;20050;-86
2023/03/11 08:55:17;;;;;;;6.77;2.50;;;;;;;5.31;82.53;101013.25;4977271;28;20604;-87
2023/03/11 08:57:43;;;;;;;6.57;2.60;;;;;;;5.15;77.81;101019.50;4994171;28;20038;-86
2023/03/11 09:00:10;;;;;;;6.50;2.50;;;;;;;5.49;79.01;101018.41;4981018;28;20045;-85
2023/03/11 09:02:36;;;;;;;7.40;2.67;;;;;;;4.87;72.21;101017.22;4978020;28;20026;-86
2023/03/11 09:05:01;;;;;;;7.10;2.77;;;;;;;5.53;72.75;101017.03;4980538;28;20038;-85
2023/03/11 09:07:27;;;;;;;6.93;2.90;;;;;;;5.25;73.56;101019.34;4994333;28;20520;-85
2023/03/11 09:09:53;;;;;;;7.30;2.23;;;;;;;5.80;72.17;101024.81;4971214;28;20023;-85
2023/03/11 09:12:19;;;;;;;8.20;2.63;;;;;;;5.94;75.39;101016.00;4977033;28;20049;-85
2023/03/11 09:14:45;;;;;;;5.13;2.40;;;;;;;5.81;72.42;101024.66;4971054;28;20802;-85
2023/03/11 09:17:11;;;;;;;5.40;2.13;;;;;;;6.74;76.35;101020.13;4973825;28;20038;-84
2023/03/11 09:19:37;;;;;;;6.00;1.83;;;;;;;6.32;66.23;101032.25;4991915;28;20046;-84
2023/03/11 09:22:03;;;;;;;4.70;1.70;;;;;;;6.83;67.70;101038.94;4990596;28;20038;-85
2023/03/11 09:24:31;;;;;;;3.73;1.50;;;;;;;7.12;62.28;101035.44;4981756;28;20386;-85
2023/03/11 09:26:57;;;;;;;6.83;1.60;;;;;;;7.20;59.58;101031.84;4994133;28;20085;-84
2023/03/11 09:29:22;;;;;;;4.43;1.40;;;;;;;6.82;60.26;101030.00;4973616;28;21063;-84
2023/03/11 09:31:47;;;;;;;6.10;1.70;;;;;;;7.39;61.80;101041.22;4966350;28;20048;-84
2023/03/11 09:34:13;;;;;;;4.20;1.70;;;;;;;7.39;64.27;101035.84;4991278;28;20037;-84
2023/03/11 09:36:42;;;;;;;4.13;1.00;;;;;;;7.31;56.66;101038.63;4992935;28;20041;-85
2023/03/11 09:39:08;;;;;;;3.47;1.33;;;;;;;7.36;56.03;101041.59;4991430;28;20038;-84
2023/03/11 09:42:01;;;;;;;5.00;1.37;;;;;;;7.39;56.71;101047.44;4993118;28;20041;-84
2023/03/11 09:44:44;;;;;;;4.10;1.40;;;;;;;7.46;59.87;101046.72;4983838;28;20044;-84
2023/03/11 09:47:25;;;;;;;3.93;1.50;;;;;;;7.19;56.17;101047.16;4993071;28;20096;-83
2023/03/11 09:49:59;;;;;;;4.03;1.70;;;;;;;6.98;60.00;101049.75;4982179;28;20042;-84
2023/03/11 09:52:34;;;;;;;;;;;;;;;8.04;69.15;101049.53;4984690;28;20421;-84
2023/03/11 09:55:02;;;;;;;5.00;1.53;;;;;;;7.08;58.70;101055.69;4988050;28;19977;-84
2023/03/11 09:57:33;;;;;;;4.70;1.40;;;;;;;6.61;59.06;101048.69;4972007;28;20838;-84
2023/03/11 10:00:03;;;;;;;4.50;1.40;;;;;;;6.74;60.36;101041.69;4993354;28;20105;-84
2023/03/11 10:02:30;;;;;;;2.83;1.33;;;;;;;6.19;59.95;101037.41;4974643;28;20042;-84
2023/03/11 10:05:17;;;;;;;5.67;1.60;;;;;;;5.99;60.46;101047.78;4967651;28;20122;-84
2023/03/11 10:07:48;;;;;;;4.13;1.43;;;;;;;5.55;61.18;101055.34;4989828;28;20038;-84
2023/03/11 10:10:16;;;;;;;5.23;1.63;;;;;;;5.55;64.12;101051.81;4975219;28;20498;-83
2023/03/11 10:12:41;;;;;;;3.90;1.40;;;;;;;5.70;61.09;101049.25;4977963;28;20049;-84
2023/03/11 10:15:27;;;;;;;4.60;1.90;;;;;;;5.70;64.88;101038.50;4976922;28;20038;-83
2023/03/11 10:18:16;;;;;;;6.33;1.73;;;;;;;5.32;66.43;101051.72;4989265;28;20122;-83
2023/03/11 10:20:56;;;;;;;5.00;2.07;;;;;;;5.45;65.63;101057.38;4979564;28;20747;-83
2023/03/11 10:23:43;;;;;;;3.73;1.50;;;;;;;5.45;64.83;101060.06;4990588;28;20037;-82
2023/03/11 10:26:14;;;;;;;4.63;1.77;;;;;;;5.77;64.21;101055.59;4982334;28;20034;-84
2023/03/11 10:28:56;;;;;;;4.23;1.70;;;;;;;6.03;66.91;101054.50;4964511;28;20035;-83
2023/03/11 10:31:30;;;;;;;6.43;1.80;;;;;;;5.91;58.55;101064.75;4990268;28;21709;-83
2023/03/11 10:34:00;;;;;;;5.38;1.80;;;;;;;5.92;64.38;101061.91;4988179;28;20101;-83
2023/03/11 10:36:37;;;;;;;3.00;1.37;;;;;;;5.77;66.47;101065.50;4989819;28;21036;-83
2023/03/11 10:39:03;;;;;;;4.47;1.43;;;;;;;5.16;63.49;101068.72;4992530;28;20434;-83
2023/03/11 10:41:38;;;;;;;4.93;1.50;;;;;;;5.57;68.60;101066.75;4973735;28;20460;-83
2023/03/11 10:44:20;;;;;;;5.23;1.40;;;;;;;6.27;68.73;101055.34;4991125;28;20050;-83
2023/03/11 10:46:45;;;;;;;4.63;1.30;;;;;;;6.37;65.48;101061.34;4991103;28;20058;-83
2023/03/11 10:49:15;;;;;;;4.70;1.50;;;;;;;6.43;60.90;101063.31;4974047;28;20226;-83
2023/03/11 10:51:47;;;;;;;6.03;1.63;;;;;;;6.34;59.34;101072.47;4992086;28;20030;-83
2023/03/11 10:54:34;;;;;;;2.67;1.27;;;;;;;6.84;64.03;101060.31;4982636;28;20505;-83
2023/03/11 10:57:17;;;;;;;3.90;1.30;;;;;;;6.73;62.08;101069.66;4965502;28;20079;-83
2023/03/11 10:59:51;;;;;;;3.67;1.40;;;;;;;6.51;62.02;101060.53;4974729;28;20066;-84
2023/03/11 11:02:27;;;;;;;4.10;1.20;;;;;;;6.71;58.53;101062.78;4963805;28;20525;-85
2023/03/11 11:05:15;;;;;;;6.20;1.50;;;;;;;7.14;61.52;101060.38;4974258;28;20124;-83
2023/03/11 11:07:41;;;;;;;4.20;1.40;;;;;;;7.01;61.27;101060.97;4966281;28;20039;-83
2023/03/11 11:10:13;;;;;;;4.83;1.27;;;;;;;7.17;63.88;101062.69;4967778;28;20046;-83
2023/03/11 11:12:55;;;;;;;5.37;1.40;;;;;;;7.34;62.78;101054.41;4982999;28;21063;-83
2023/03/11 11:16:01;;;;;;;5.63;1.77;;;;;;;7.23;62.66;101064.63;4976917;28;20031;-84
2023/03/11 11:18:42;;;;;;;4.73;1.73;;;;;;;6.31;62.18;101064.72;4973665;28;20066;-83
2023/03/11 11:21:14;;;;;;;6.67;1.80;;;;;;;6.84;63.26;101067.53;4989567;28;20046;-83
2023/03/11 11:23:41;;;;;;;3.00;1.50;;;;;;;6.33;59.09;101071.63;4990813;28;20038;-83